createdAt,value
2019-03-24T00:00:17.476Z,102143.50
2019-03-24T00:02:46.869Z,102139.84
2019-03-24T00:05:16.171Z,102149.22
2019-03-24T00:07:45.589Z,102149.88
2019-03-24T00:10:15.255Z,102150.64
2019-03-24T00:12:44.550Z,102153.62
2019-03-24T00:15:25.463Z,102153.62
2019-03-24T00:17:45.559Z,102148.35
2019-03-24T00:20:15.820Z,102145.39
2019-03-24T00:22:45.136Z,102144.46
2019-03-24T00:25:14.449Z,102149.42
2019-03-24T00:27:44.167Z,102149.42
2019-03-24T00:30:14.620Z,102151.80
2019-03-24T00:32:44.593Z,102141.05
2019-03-24T00:35:14.026Z,102141.05
2019-03-24T00:37:43.811Z,102134.37
2019-03-24T00:40:14.041Z,102140.25
2019-03-24T00:42:43.597Z,102135.92
2019-03-24T00:45:14.554Z,102135.92
2019-03-24T00:47:44.279Z,102130.24
2019-03-24T00:50:14.122Z,102139.42
2019-03-24T00:52:43.600Z,102136.30
2019-03-24T00:55:13.865Z,102136.30
2019-03-24T00:57:43.161Z,102139.26
2019-03-24T01:00:13.501Z,102122.13
2019-03-24T01:02:43.099Z,102124.72
2019-03-24T01:05:12.663Z,102124.72
2019-03-24T01:07:41.978Z,102124.27
2019-03-24T01:10:12.456Z,102124.27
2019-03-24T01:12:41.927Z,102118.41
2019-03-24T01:15:11.865Z,102118.41
2019-03-24T01:17:41.180Z,102119.25
2019-03-24T01:20:10.824Z,102119.25
2019-03-24T01:22:40.139Z,102118.20
2019-03-24T01:25:09.521Z,102114.81
2019-03-24T01:27:39.043Z,102115.24
2019-03-24T01:30:09.695Z,102122.98
2019-03-24T01:32:39.216Z,102123.38
2019-03-24T01:35:08.529Z,102123.38
2019-03-24T01:37:37.846Z,102127.44
2019-03-24T01:40:07.680Z,102124.18
2019-03-24T01:42:37.157Z,102125.16
2019-03-24T01:45:09.543Z,102130.09
2019-03-24T01:47:39.301Z,102130.09
2019-03-24T01:50:09.688Z,102122.77
2019-03-24T01:52:38.998Z,102130.68
2019-03-24T01:55:09.206Z,102126.13
2019-03-24T01:57:38.833Z,102126.06
2019-03-24T02:00:09.536Z,102122.50
2019-03-24T02:02:38.986Z,102122.50
2019-03-24T02:05:08.630Z,102114.84
2019-03-24T02:07:37.940Z,102114.84
2019-03-24T02:10:08.472Z,102111.70
2019-03-24T02:12:37.784Z,102103.03
2019-03-24T02:15:11.015Z,102102.55
2019-03-24T02:17:40.316Z,102102.07
2019-03-24T02:20:10.641Z,102101.63
2019-03-24T02:22:39.962Z,102099.80
2019-03-24T02:25:10.072Z,102094.30
2019-03-24T02:27:39.396Z,102091.58
2019-03-24T02:30:10.014Z,102096.70
2019-03-24T02:32:39.393Z,102089.45
2019-03-24T02:35:09.031Z,102089.45
2019-03-24T02:37:38.351Z,102076.82
2019-03-24T02:40:08.692Z,102076.82
2019-03-24T02:42:38.210Z,102075.88
2019-03-24T02:45:08.551Z,102073.75
2019-03-24T02:47:37.939Z,102078.13
2019-03-24T02:50:08.182Z,102078.13
2019-03-24T02:52:37.557Z,102071.33
2019-03-24T02:55:08.206Z,102070.02
2019-03-24T02:57:37.594Z,102070.02
2019-03-24T03:00:08.998Z,102070.46
2019-03-24T03:02:38.376Z,102067.86
2019-03-24T03:05:09.314Z,102067.13
2019-03-24T03:07:38.637Z,102068.51
2019-03-24T03:10:09.062Z,102068.51
2019-03-24T03:12:38.519Z,102070.57
2019-03-24T03:15:09.580Z,102078.41
2019-03-24T03:17:39.112Z,102078.41
2019-03-24T03:20:09.749Z,102073.39
2019-03-24T03:22:39.127Z,102073.39
2019-03-24T03:25:08.904Z,102068.70
2019-03-24T03:27:38.328Z,102068.70
2019-03-24T03:30:09.265Z,102071.48
2019-03-24T03:32:38.653Z,102071.31
2019-03-24T03:35:10.074Z,102066.69
2019-03-24T03:37:39.485Z,102069.78
2019-03-24T03:40:09.705Z,102060.17
2019-03-24T03:42:40.255Z,102060.17
2019-03-24T03:45:11.554Z,102063.19
2019-03-24T03:47:41.025Z,102066.72
2019-03-24T03:50:10.802Z,102064.56
2019-03-24T03:52:40.213Z,102064.56
2019-03-24T03:55:10.087Z,102059.14
2019-03-24T03:57:39.452Z,102048.78
2019-03-24T04:00:10.514Z,102048.78
2019-03-24T04:02:39.845Z,102045.17
2019-03-24T04:05:09.688Z,102045.17
2019-03-24T04:07:39.015Z,102048.05
2019-03-24T04:10:09.131Z,102048.05
2019-03-24T04:12:38.433Z,102049.75
2019-03-24T04:15:08.772Z,102041.75
2019-03-24T04:17:38.090Z,102037.98
2019-03-24T04:20:08.366Z,102036.41
2019-03-24T04:22:38.146Z,102035.88
2019-03-24T04:25:08.003Z,102035.88
2019-03-24T04:27:37.293Z,102038.72
2019-03-24T04:30:08.692Z,102030.30
2019-03-24T04:32:38.123Z,102037.66
2019-03-24T04:35:08.494Z,102028.83
2019-03-24T04:37:37.854Z,102030.63
2019-03-24T04:40:08.108Z,102030.63
2019-03-24T04:42:37.396Z,102031.62
2019-03-24T04:45:08.552Z,102031.62
2019-03-24T04:47:37.851Z,102034.81
2019-03-24T04:50:08.805Z,102034.81
2019-03-24T04:52:38.090Z,102020.09
2019-03-24T04:55:08.356Z,102020.27
2019-03-24T04:57:37.823Z,102024.73
2019-03-24T05:00:08.858Z,102024.73
2019-03-24T05:02:38.515Z,102019.86
2019-03-24T05:05:08.471Z,102023.05
2019-03-24T05:07:38.812Z,102017.16
2019-03-24T05:10:11.178Z,102017.16
2019-03-24T05:12:40.479Z,102019.17
2019-03-24T05:15:10.253Z,102014.35
2019-03-24T05:17:39.544Z,102014.35
2019-03-24T05:20:09.407Z,102016.67
2019-03-24T05:22:38.724Z,102017.92
2019-03-24T05:25:08.162Z,102027.69
2019-03-24T05:27:37.476Z,102015.53
2019-03-24T05:30:10.484Z,102026.92
2019-03-24T05:32:39.927Z,102026.92
2019-03-24T05:35:09.671Z,102026.66
2019-03-24T05:37:38.992Z,102023.47
2019-03-24T05:40:08.365Z,102023.47
2019-03-24T05:42:37.678Z,102025.95
2019-03-24T05:45:09.288Z,102023.39
2019-03-24T05:47:38.587Z,102023.39
2019-03-24T05:50:08.808Z,102020.87
2019-03-24T05:52:38.128Z,102012.83
2019-03-24T05:55:08.492Z,102014.97
2019-03-24T05:57:37.823Z,102018.89
2019-03-24T06:00:09.171Z,102018.89
2019-03-24T06:02:38.568Z,102010.91
2019-03-24T06:05:08.416Z,102021.07
2019-03-24T06:07:37.753Z,102021.07
2019-03-24T06:10:08.222Z,102019.12
2019-03-24T06:12:37.542Z,102025.77
2019-03-24T06:15:09.146Z,102025.77
2019-03-24T06:17:47.399Z,102030.17
2019-03-24T06:20:10.767Z,102030.17
2019-03-24T06:22:40.183Z,102025.92
2019-03-24T06:25:10.005Z,102030.41
2019-03-24T06:27:39.488Z,102032.05
2019-03-24T06:30:09.805Z,102032.05
2019-03-24T06:32:39.102Z,102023.95
2019-03-24T06:35:09.437Z,102023.64
2019-03-24T06:37:38.760Z,102023.64
2019-03-24T06:40:09.101Z,102024.56
2019-03-24T06:42:38.493Z,102024.56
2019-03-24T06:45:08.458Z,102025.97
2019-03-24T06:47:38.048Z,102024.58
2019-03-24T06:50:07.892Z,102025.34
2019-03-24T06:52:37.288Z,102020.50
2019-03-24T06:55:06.951Z,102024.52
2019-03-24T06:57:36.258Z,102027.00
2019-03-24T07:00:08.384Z,102027.00
2019-03-24T07:02:37.775Z,102025.25
2019-03-24T07:05:07.809Z,102028.34
2019-03-24T07:07:37.122Z,102026.47
2019-03-24T07:10:09.064Z,102027.48
2019-03-24T07:12:38.460Z,102028.59
2019-03-24T07:15:08.530Z,102026.20
2019-03-24T07:17:37.922Z,102025.69
2019-03-24T07:20:07.970Z,102024.80
2019-03-24T07:22:37.248Z,102025.81
2019-03-24T07:25:07.376Z,102029.20
2019-03-24T07:27:36.670Z,102019.40
2019-03-24T07:30:09.377Z,102030.00
2019-03-24T07:32:38.709Z,102027.42
2019-03-24T07:35:08.061Z,102027.98
2019-03-24T07:37:37.417Z,102026.37
2019-03-24T07:40:08.875Z,102009.56
2019-03-24T07:42:38.273Z,102021.48
2019-03-24T07:45:09.149Z,102023.25
2019-03-24T07:47:38.447Z,102019.83
2019-03-24T07:50:09.401Z,102025.66
2019-03-24T07:52:38.795Z,102021.92
2019-03-24T07:55:09.352Z,102017.16
2019-03-24T07:57:38.645Z,102018.12
2019-03-24T08:00:10.203Z,102014.62
2019-03-24T08:02:51.098Z,102016.83
2019-03-24T08:05:18.365Z,102010.34
2019-03-24T08:07:47.820Z,102012.41
2019-03-24T08:10:17.483Z,102004.17
2019-03-24T08:12:46.972Z,102005.35
2019-03-24T08:15:16.601Z,102001.53
2019-03-24T08:17:45.946Z,101994.42
2019-03-24T08:20:15.248Z,101991.97
2019-03-24T08:22:44.562Z,101983.34
2019-03-24T08:25:13.948Z,101984.59
2019-03-24T08:27:43.254Z,101984.33
2019-03-24T08:30:12.931Z,101981.49
2019-03-24T08:32:43.319Z,101979.34
2019-03-24T08:35:12.999Z,101975.52
2019-03-24T08:37:42.291Z,101975.52
2019-03-24T08:40:11.941Z,101973.01
2019-03-24T08:42:41.266Z,101975.97
2019-03-24T08:45:13.614Z,101972.10
2019-03-24T08:47:42.938Z,101969.45
2019-03-24T08:50:12.310Z,101996.17
2019-03-24T08:52:41.697Z,101961.34
2019-03-24T08:55:11.364Z,101949.11
2019-03-24T08:57:40.679Z,101949.11
2019-03-24T09:00:10.043Z,101959.56
2019-03-24T09:02:39.549Z,101959.02
2019-03-24T09:05:08.989Z,101953.36
2019-03-24T09:07:38.302Z,101941.02
2019-03-24T09:10:08.625Z,101943.59
2019-03-24T09:12:38.040Z,101933.77
2019-03-24T09:15:08.283Z,101937.29
2019-03-24T09:17:37.669Z,101927.92
2019-03-24T09:20:07.940Z,101926.16
2019-03-24T09:22:37.301Z,101919.17
2019-03-24T09:25:07.978Z,101929.13
2019-03-24T09:27:37.278Z,101926.58
2019-03-24T09:30:18.049Z,101933.62
2019-03-24T09:32:47.354Z,101940.64
2019-03-24T09:35:16.662Z,101945.34
2019-03-24T09:37:46.351Z,101950.86
2019-03-24T09:40:18.895Z,101950.58
2019-03-24T09:42:48.137Z,101953.44
2019-03-24T09:45:17.456Z,101960.88
2019-03-24T09:47:46.759Z,101960.22
2019-03-24T09:50:16.099Z,101961.16
2019-03-24T09:52:45.605Z,101963.52
2019-03-24T09:55:14.936Z,101965.50
2019-03-24T09:57:44.232Z,101964.38
2019-03-24T10:00:13.689Z,101969.47
2019-03-24T10:02:42.994Z,101967.41
2019-03-24T10:05:13.148Z,101971.73
2019-03-24T10:07:42.481Z,101973.18
2019-03-24T10:10:12.229Z,101975.16
2019-03-24T10:12:41.641Z,101974.09
2019-03-24T10:15:11.522Z,101978.06
2019-03-24T10:17:40.813Z,101973.34
2019-03-24T10:20:10.767Z,101977.14
2019-03-24T10:22:40.135Z,101976.28
2019-03-24T10:25:09.523Z,101975.53
2019-03-24T10:27:38.837Z,101970.79
2019-03-24T10:30:09.198Z,101978.72
2019-03-24T10:32:38.561Z,101975.33
2019-03-24T10:35:08.415Z,101976.65
2019-03-24T10:37:37.917Z,101967.02
2019-03-24T10:40:07.862Z,101966.81
2019-03-24T10:42:38.316Z,101972.10
2019-03-24T10:45:08.248Z,101972.11
2019-03-24T10:47:37.968Z,101975.82
2019-03-24T10:50:09.293Z,101974.09
2019-03-24T10:52:39.051Z,101977.14
2019-03-24T10:55:10.803Z,101979.88
2019-03-24T10:57:40.777Z,101978.92
2019-03-24T11:00:40.196Z,101983.17
2019-03-24T11:03:10.064Z,101982.59
2019-03-24T11:05:39.437Z,101982.59
2019-03-24T11:08:09.091Z,101983.80
2019-03-24T11:10:38.398Z,101970.56
2019-03-24T11:13:07.921Z,101977.78
2019-03-24T11:15:37.220Z,101971.68
2019-03-24T11:18:06.897Z,101958.02
2019-03-24T11:20:36.196Z,101962.25
2019-03-24T11:23:05.778Z,101962.07
2019-03-24T11:25:35.626Z,101957.89
2019-03-24T11:28:04.923Z,101962.23
2019-03-24T11:30:34.551Z,101952.86
2019-03-24T11:33:04.164Z,101950.16
2019-03-24T11:35:33.976Z,101943.79
2019-03-24T11:38:03.343Z,101935.94
2019-03-24T11:40:32.727Z,101926.13
2019-03-24T11:43:02.359Z,101919.10
2019-03-24T11:45:31.771Z,101917.90
2019-03-24T11:48:01.241Z,101914.16
2019-03-24T11:50:30.566Z,101906.02
2019-03-24T11:52:59.887Z,101904.54
2019-03-24T11:55:29.214Z,101897.36
2019-03-24T11:58:05.767Z,101889.10
2019-03-24T12:00:37.807Z,101878.55
2019-03-24T12:03:07.946Z,101872.98
2019-03-24T12:05:37.597Z,101862.73
2019-03-24T12:08:07.168Z,101873.23
2019-03-24T12:10:37.121Z,101866.03
2019-03-24T12:13:06.434Z,101858.42
2019-03-24T12:15:36.077Z,101858.36
2019-03-24T12:18:05.555Z,101854.71
2019-03-24T12:20:34.940Z,101849.67
2019-03-24T12:23:04.222Z,101848.45
2019-03-24T12:25:33.535Z,101845.44
2019-03-24T12:28:02.908Z,101844.70
2019-03-24T12:30:32.301Z,101840.56
2019-03-24T12:33:02.185Z,101826.26
2019-03-24T12:35:31.644Z,101822.39
2019-03-24T12:38:01.155Z,101818.08
2019-03-24T12:40:30.549Z,101808.64
2019-03-24T12:42:59.946Z,101803.47
2019-03-24T12:45:29.288Z,101799.87
2019-03-24T12:47:58.608Z,101794.33
2019-03-24T12:50:31.784Z,101799.20
2019-03-24T12:52:59.303Z,101793.27
2019-03-24T12:55:28.877Z,101793.98
2019-03-24T12:57:58.394Z,101796.72
2019-03-24T13:00:34.263Z,101802.45
2019-03-24T13:03:03.919Z,101793.69
2019-03-24T13:05:33.316Z,101793.83
2019-03-24T13:08:11.168Z,101793.55
2019-03-24T13:10:42.003Z,101796.01
2019-03-24T13:13:12.361Z,101793.23
2019-03-24T13:15:42.254Z,101791.98
2019-03-24T13:18:11.547Z,101793.40
2019-03-24T13:20:41.150Z,101800.33
2019-03-24T13:23:10.450Z,101795.09
2019-03-24T13:25:39.855Z,101792.52
2019-03-24T13:28:09.312Z,101793.71
2019-03-24T13:30:38.751Z,101792.53
2019-03-24T13:33:08.243Z,101787.12
2019-03-24T13:35:37.641Z,101790.58
2019-03-24T13:38:07.000Z,101787.95
2019-03-24T13:40:36.292Z,101786.02
2019-03-24T13:43:05.866Z,101790.76
2019-03-24T13:45:35.370Z,101787.97
2019-03-24T13:48:04.882Z,101784.03
2019-03-24T13:50:34.238Z,101779.11
2019-03-24T13:53:03.657Z,101776.55
2019-03-24T13:55:33.256Z,101775.52
2019-03-24T13:58:02.901Z,101768.04
2019-03-24T14:00:32.324Z,101768.11
2019-03-24T14:03:01.955Z,101769.59
2019-03-24T14:05:31.332Z,101763.05
2019-03-24T14:08:00.806Z,101760.47
2019-03-24T14:10:30.240Z,101758.53
2019-03-24T14:12:59.624Z,101761.88
2019-03-24T14:15:28.999Z,101758.20
2019-03-24T14:17:58.561Z,101753.77
2019-03-24T14:20:28.054Z,101764.43
2019-03-24T14:22:57.417Z,101766.02
2019-03-24T14:25:26.781Z,101770.64
2019-03-24T14:27:56.051Z,101767.52
2019-03-24T14:30:42.782Z,101766.86
2019-03-24T14:33:12.296Z,101774.33
2019-03-24T14:35:42.305Z,101767.59
2019-03-24T14:38:11.668Z,101766.47
2019-03-24T14:40:41.453Z,101767.14
2019-03-24T14:43:10.751Z,101769.94
2019-03-24T14:45:40.063Z,101730.96
2019-03-24T14:48:09.354Z,101738.44
2019-03-24T14:50:38.962Z,101772.97
2019-03-24T14:53:11.268Z,101772.82
2019-03-24T14:55:40.688Z,101776.33
2019-03-24T14:58:10.002Z,101771.03
2019-03-24T15:00:41.360Z,101773.34
2019-03-24T15:03:11.533Z,101773.12
2019-03-24T15:05:40.842Z,101779.98
2019-03-24T15:08:11.088Z,101778.42
2019-03-24T15:10:40.465Z,101772.63
2019-03-24T15:13:10.028Z,101774.42
2019-03-24T15:15:39.378Z,101770.45
2019-03-24T15:18:08.773Z,101767.66
2019-03-24T15:20:38.531Z,101770.05
2019-03-24T15:23:08.066Z,101764.64
2019-03-24T15:25:37.555Z,101767.44
2019-03-24T15:28:06.995Z,101762.47
2019-03-24T15:30:36.491Z,101764.39
2019-03-24T15:33:05.787Z,101757.73
2019-03-24T15:35:35.284Z,101761.16
2019-03-24T15:38:08.413Z,101757.91
2019-03-24T15:40:35.769Z,101751.61
2019-03-24T15:43:05.067Z,101755.72
2019-03-24T15:45:34.368Z,101754.16
2019-03-24T15:48:03.994Z,101748.84
2019-03-24T15:50:33.374Z,101741.23
2019-03-24T15:53:02.649Z,101736.66
2019-03-24T15:55:32.021Z,101735.56
2019-03-24T15:58:01.421Z,101732.05
2019-03-24T16:00:42.162Z,101735.09
2019-03-24T16:03:12.974Z,101740.03
2019-03-24T16:05:42.331Z,101742.06
2019-03-24T16:08:11.686Z,101748.82
2019-03-24T16:10:41.235Z,101746.39
2019-03-24T16:13:10.565Z,101747.83
2019-03-24T16:15:40.241Z,101745.16
2019-03-24T16:18:09.669Z,101747.42
2019-03-24T16:20:39.324Z,101692.72
2019-03-24T16:23:08.636Z,101737.20
2019-03-24T16:25:37.924Z,101731.28
2019-03-24T16:28:07.502Z,101732.81
2019-03-24T16:30:37.007Z,101738.28
2019-03-24T16:33:06.511Z,101731.34
2019-03-24T16:35:36.044Z,101733.34
2019-03-24T16:38:05.504Z,101736.75
2019-03-24T16:40:34.905Z,101737.14
2019-03-24T16:43:04.346Z,101733.48
2019-03-24T16:45:34.698Z,101737.08
2019-03-24T16:48:04.468Z,101740.99
2019-03-24T16:50:33.959Z,101738.22
2019-03-24T16:53:03.438Z,101734.33
2019-03-24T16:55:32.888Z,101731.13
2019-03-24T16:58:02.196Z,101739.81
2019-03-24T17:00:31.905Z,101735.81
2019-03-24T17:03:01.691Z,101738.64
2019-03-24T17:05:31.014Z,101733.41
2019-03-24T17:08:00.800Z,101733.48
2019-03-24T17:10:30.210Z,101728.78
2019-03-24T17:12:59.601Z,101731.64
2019-03-24T17:15:29.473Z,101736.91
2019-03-24T17:17:59.043Z,101732.93
2019-03-24T17:20:29.025Z,101737.86
2019-03-24T17:22:58.344Z,101732.67
2019-03-24T17:25:27.618Z,101738.99
2019-03-24T17:27:57.068Z,101736.47
2019-03-24T17:30:26.523Z,101737.53
2019-03-24T17:32:55.853Z,101738.28
2019-03-24T17:35:25.215Z,101734.80
2019-03-24T17:37:54.745Z,101737.34
2019-03-24T17:40:24.345Z,101741.99
2019-03-24T17:42:53.719Z,101741.44
2019-03-24T17:45:22.994Z,101745.52
2019-03-24T17:47:52.390Z,101747.22
2019-03-24T17:50:22.083Z,101747.41
2019-03-24T17:52:51.584Z,101746.49
2019-03-24T17:55:27.514Z,101749.09
2019-03-24T17:57:52.211Z,101749.13
2019-03-24T18:00:36.115Z,101749.13
2019-03-24T18:03:06.177Z,101748.47
2019-03-24T18:05:35.765Z,101750.50
2019-03-24T18:08:05.597Z,101759.63
2019-03-24T18:10:35.315Z,101764.77
2019-03-24T18:13:05.340Z,101757.30
2019-03-24T18:15:34.644Z,101771.83
2019-03-24T18:18:04.024Z,101763.34
2019-03-24T18:20:36.032Z,101760.30
2019-03-24T18:23:05.796Z,101771.84
2019-03-24T18:25:35.159Z,101774.19
2019-03-24T18:28:04.813Z,101774.19
2019-03-24T18:30:34.358Z,101774.23
2019-03-24T18:33:03.801Z,101774.23
2019-03-24T18:35:33.421Z,101770.81
2019-03-24T18:38:02.790Z,101766.94
2019-03-24T18:40:32.116Z,101767.59
2019-03-24T18:43:01.432Z,101765.97
2019-03-24T18:45:30.704Z,101768.33
2019-03-24T18:48:00.305Z,101767.24
2019-03-24T18:50:29.928Z,101773.56
2019-03-24T18:52:59.345Z,101777.33
2019-03-24T18:55:28.667Z,101772.44
2019-03-24T19:04:21.882Z,101771.36
2019-03-24T19:07:17.840Z,101777.94
2019-03-24T19:09:47.110Z,101779.09
2019-03-24T19:12:16.427Z,101774.25
2019-03-24T19:14:45.869Z,101774.36
2019-03-24T19:17:15.251Z,101771.05
2019-03-24T19:19:44.784Z,101769.97
2019-03-24T19:22:14.289Z,101769.98
2019-03-24T19:24:43.616Z,101763.20
2019-03-24T19:27:12.906Z,101773.51
2019-03-24T19:29:42.205Z,101765.52
2019-03-24T19:32:11.875Z,101773.23
2019-03-24T19:34:41.202Z,101731.21
2019-03-24T19:37:11.186Z,101766.53
2019-03-24T19:39:40.756Z,101766.53
2019-03-24T19:42:10.529Z,101766.56
2019-03-24T19:44:40.052Z,101766.56
2019-03-24T19:47:09.350Z,101764.75
2019-03-24T19:49:39.027Z,101762.59
2019-03-24T19:52:08.421Z,101762.59
2019-03-24T19:54:38.056Z,101757.14
2019-03-24T19:57:07.424Z,101763.73
2019-03-24T19:59:36.721Z,101763.73
2019-03-24T20:02:06.081Z,101757.38
2019-03-24T20:04:35.422Z,101762.59
2019-03-24T20:07:04.861Z,101762.59
2019-03-24T20:09:34.342Z,101755.13
2019-03-24T20:12:03.772Z,101755.13
2019-03-24T20:14:33.222Z,101754.79
2019-03-24T20:17:02.772Z,101749.41
2019-03-24T20:19:32.251Z,101749.41
2019-03-24T20:22:01.545Z,101753.77
2019-03-24T20:24:30.874Z,101753.92
2019-03-24T20:27:00.202Z,101749.44
2019-03-24T20:29:29.694Z,101752.80
2019-03-24T20:31:59.203Z,101752.80
2019-03-24T20:34:28.503Z,101747.08
2019-03-24T20:36:57.832Z,101746.55
2019-03-24T20:39:27.162Z,101746.55
2019-03-24T20:41:56.473Z,101743.13
2019-03-24T20:44:25.757Z,101753.41
2019-03-24T20:46:55.071Z,101753.95
2019-03-24T20:49:24.387Z,101759.54
2019-03-24T20:51:53.853Z,101759.54
2019-03-24T20:54:23.279Z,101750.68
2019-03-24T20:56:52.588Z,101755.02
2019-03-24T20:59:22.015Z,101753.10
2019-03-24T21:01:51.479Z,101748.58
2019-03-24T21:04:20.809Z,101746.40
2019-03-24T21:06:50.112Z,101746.40
2019-03-24T21:09:19.515Z,101757.98
2019-03-24T21:11:48.816Z,101748.28
2019-03-24T21:14:18.441Z,101746.78
2019-03-24T21:16:47.744Z,101751.56
2019-03-24T21:19:17.199Z,101758.03
2019-03-24T21:21:46.579Z,101761.45
2019-03-24T21:24:15.878Z,101761.45
2019-03-24T21:26:45.389Z,101755.77
2019-03-24T21:29:14.666Z,101755.77
2019-03-24T21:31:44.014Z,101761.75
2019-03-24T21:34:13.319Z,101759.34
2019-03-24T21:36:42.619Z,101767.55
2019-03-24T21:39:11.950Z,101756.88
2019-03-24T21:41:41.238Z,101761.89
2019-03-24T21:44:10.563Z,101758.13
2019-03-24T21:46:39.859Z,101758.13
2019-03-24T21:49:09.525Z,101757.02
2019-03-24T21:51:38.807Z,101752.00
2019-03-24T21:54:08.188Z,101752.00
2019-03-24T21:56:37.472Z,101755.02
2019-03-24T21:59:06.794Z,101749.55
2019-03-24T22:01:36.251Z,101753.97
2019-03-24T22:04:05.515Z,101753.97
2019-03-24T22:06:34.958Z,101756.06
2019-03-24T22:09:06.687Z,101751.61
2019-03-24T22:11:35.986Z,101747.22
2019-03-24T22:14:05.720Z,101743.59
2019-03-24T22:16:35.030Z,101746.30
2019-03-24T22:19:04.644Z,101748.80
2019-03-24T22:21:33.951Z,101756.18
2019-03-24T22:24:03.258Z,101745.73
2019-03-24T22:26:32.541Z,101750.92
2019-03-24T22:29:01.931Z,101746.48
2019-03-24T22:31:31.405Z,101745.78
2019-03-24T22:34:00.706Z,101746.10
2019-03-24T22:36:30.076Z,101742.70
2019-03-24T22:38:59.458Z,101749.92
2019-03-24T22:41:28.742Z,101741.90
2019-03-24T22:43:58.052Z,101742.80
2019-03-24T22:46:27.460Z,101745.55
2019-03-24T22:48:56.848Z,101732.59
2019-03-24T22:51:26.444Z,101727.01
2019-03-24T22:54:03.204Z,101721.58
2019-03-24T22:56:27.151Z,101717.87
2019-03-24T22:58:56.527Z,101718.23
2019-03-24T23:01:26.463Z,101717.55
2019-03-24T23:03:55.829Z,101708.92
2019-03-24T23:06:28.370Z,101709.92
2019-03-24T23:08:58.982Z,101708.17
2019-03-24T23:11:29.442Z,101698.22
2019-03-24T23:14:01.343Z,101689.82
2019-03-24T23:16:32.885Z,101689.82
2019-03-24T23:19:03.839Z,101690.66
2019-03-24T23:21:35.012Z,101695.34
2019-03-24T23:24:14.848Z,101689.39
2019-03-24T23:26:38.476Z,101685.83
2019-03-24T23:29:09.617Z,101681.25
2019-03-24T23:31:39.065Z,101680.16
2019-03-24T23:34:08.375Z,101678.37
2019-03-24T23:36:37.684Z,101678.55
2019-03-24T23:39:08.317Z,101680.62
2019-03-24T23:41:37.736Z,101672.62
2019-03-24T23:44:07.112Z,101671.23
2019-03-24T23:46:36.433Z,101672.31
2019-03-24T23:49:08.030Z,101668.51
2019-03-24T23:51:39.100Z,101655.10
2019-03-24T23:54:10.441Z,101655.75
2019-03-24T23:56:40.803Z,101653.35
2019-03-24T23:59:11.893Z,101653.13
